الصفحة الرئيسية
METAR-TAF:

METAR-TAF

مطار :

مطار وارسو فريدريك شوبان

وارسو, بولندا

دائرة عرض: 52-10N, خط طول: 020-58E, ارتفاع: 106 متر

مراقبة الطقس الحالي

تاريخ ووقت الإصدار 30 دقيقة قبل الساعة 16:00UTC
ريح 11 عقدة من الجنوب الشرقي
درجة الحرارة 25°درجة مئوية
الرطوبة 39%
ضغط 1010 hPa
الرؤية 10 كم أو أكثر
الغيوم لا تقل 1500 م ولا وجود لمزنة ركامية السحاب الأسود

METAR: EPWA 151600Z 14011KT CAVOK 25/10 Q1010 NOSIG

زمن: 18:30 (16:30 UTC)

توقعات

تاريخ ووقت الإصدار 2ساعات و 0 دقيقة قبل الساعة 14:30UTC
التوقعات صالحة من15 الساعة 15 UTC إلى 16 الساعة 15 UTC
ريح 12 عقدة من الجنوب/الجنوب الشرقي
الرؤية 10 كم أو أكثر
الغيوم لا تقل 1500 م ولا وجود لمزنة ركامية السحاب الأسود
نظرية الاحتمالات 30% :
مؤقت
من 15 الساعة 15 UTC إلى 15 الساعة 19 UTC
ريح 15 عقدة من الجنوب تتزايد حتى 25 عقدة
أصبح
من 16 الساعة 10 UTC إلى 16 الساعة 12 UTC
ريح 5 عقدة من الشمال الغربي
مؤقت
من 16 الساعة 12 UTC إلى 16 الساعة 15 UTC
غيوم مفككة على ارتفاع 3000 قدم, مزنة ركامية.
زخات من المطر,

TAF: EPWA 151430Z 1515/1615 15012KT CAVOK PROB30 TEMPO 1515/1519 18015G25KT BECMG 1610/1612 32005KT TEMPO 1612/1615 SHRA BKN030CB

أرصاد الطقس والتوقعات من أكثر من 4000 مطار (تقارير الطقس للمطار METAR والتنبؤ بالطقس بالمطارTAF).

المحطات المتاحة هي النقط الصفراء والحمراء على الخريطة.

حرك المؤشر فوق النقطة لمعرفة اسم المحطة.

ثم انقر لمعرفة أرصاد وتوقعات الطقس.

لتغيير الخارطة: اضغط على الأزرار الخضراء مع رمز الصليب الأسود للتكبير. على الزر الأخضر مع شرطة للتصغير، أو على الأسهم الخضراء للخرائط المجاورة.


METAR-TAF: